Time;durP1;ratioP1;P1;durP2;ratioP2;P2;SDS_P1;SDS_P2;PMS_P1;PMS_P2;Temp;Humidity;BMP_temperature;BMP_pressure;BME280_temperature;BME280_humidity;BME280_pressure;Samples;Min_cycle;Max_cycle;Signal;HPM_P1;HPM_P2
2023/04/13 00:01:18;;;;;;;1.80;1.58;;;19.40;58.10;;;;;;5071206;28;20544;-58
2023/04/13 00:03:48;;;;;;;3.22;2.10;;;19.40;58.20;;;;;;5071243;28;20241;-58
2023/04/13 00:06:21;;;;;;;2.50;1.90;;;19.40;58.20;;;;;;5071564;28;20233;-58
2023/04/13 00:08:53;;;;;;;1.75;1.60;;;19.40;58.20;;;;;;5071414;28;20199;-58
2023/04/13 00:11:26;;;;;;;2.15;1.60;;;19.40;58.20;;;;;;5076952;28;20190;-58
2023/04/13 00:13:57;;;;;;;2.50;2.00;;;19.40;58.20;;;;;;5090901;28;20263;-58
2023/04/13 00:16:30;;;;;;;2.38;2.10;;;19.50;58.20;;;;;;5091610;28;20612;-58
2023/04/13 00:19:01;;;;;;;2.80;2.10;;;19.40;58.10;;;;;;5091544;28;20537;-58
2023/04/13 00:21:33;;;;;;;3.60;2.28;;;19.40;58.10;;;;;;5073401;28;20191;-58
2023/04/13 00:24:03;;;;;;;3.05;2.03;;;19.50;58.20;;;;;;5070889;28;20690;-57
2023/04/13 00:26:34;;;;;;;3.03;2.22;;;19.50;58.10;;;;;;5070951;28;20199;-59
2023/04/13 00:29:04;;;;;;;2.70;2.30;;;19.50;58.20;;;;;;5071101;28;20205;-58
2023/04/13 00:31:38;;;;;;;3.53;2.40;;;19.50;58.20;;;;;;5071215;28;20195;-58
2023/04/13 00:34:09;;;;;;;2.58;1.98;;;19.50;58.20;;;;;;5071041;28;20217;-58
2023/04/13 00:36:39;;;;;;;4.05;2.53;;;19.50;58.30;;;;;;5071082;28;20222;-59
2023/04/13 00:39:10;;;;;;;3.22;2.20;;;19.50;58.30;;;;;;5071085;28;20282;-58
2023/04/13 00:41:41;;;;;;;4.32;2.75;;;19.50;58.40;;;;;;5070725;28;20194;-58
2023/04/13 00:44:11;;;;;;;3.65;2.80;;;19.50;58.40;;;;;;5070563;28;20265;-58
2023/04/13 00:46:45;;;;;;;3.97;2.47;;;19.50;58.40;;;;;;5085341;28;20233;-58
2023/04/13 00:49:16;;;;;;;3.72;2.65;;;19.50;58.40;;;;;;5084184;28;20222;-58
2023/04/13 00:51:47;;;;;;;3.13;2.38;;;19.50;58.30;;;;;;5070921;28;20190;-58
2023/04/13 00:54:18;;;;;;;5.43;3.20;;;19.50;58.40;;;;;;5070931;28;20631;-58
2023/04/13 00:56:49;;;;;;;4.43;3.25;;;19.50;58.40;;;;;;5070484;28;20222;-58
2023/04/13 00:59:20;;;;;;;5.28;2.90;;;19.50;58.40;;;;;;5071115;28;20198;-58
2023/04/13 01:01:55;;;;;;;3.65;2.53;;;19.50;58.40;;;;;;5070917;28;20198;-58
2023/04/13 01:04:26;;;;;;;3.30;2.42;;;19.60;58.40;;;;;;5070573;28;20293;-58
2023/04/13 01:07:06;;;;;;;4.03;2.80;;;19.50;58.30;;;;;;5071127;28;20230;-58
2023/04/13 01:09:42;;;;;;;4.18;2.92;;;19.50;58.30;;;;;;5070913;28;20195;-58
2023/04/13 01:12:20;;;;;;;5.05;3.10;;;19.60;58.40;;;;;;5070646;28;20316;-58
2023/04/13 01:14:59;;;;;;;5.60;3.17;;;19.60;58.40;;;;;;5070042;28;20198;-58
2023/04/13 01:17:35;;;;;;;4.35;3.08;;;19.50;58.40;;;;;;5070215;28;20313;-58
2023/04/13 01:20:10;;;;;;;3.63;2.70;;;19.50;58.40;;;;;;5070239;28;20206;-58
2023/04/13 01:22:44;;;;;;;4.57;2.80;;;19.60;58.50;;;;;;5069946;28;20307;-58
2023/04/13 01:25:29;;;;;;;4.80;2.97;;;19.60;58.50;;;;;;5070511;28;20202;-58
2023/04/13 01:28:04;;;;;;;4.18;3.03;;;19.60;58.50;;;;;;5079352;28;20187;-59
2023/04/13 01:30:36;;;;;;;5.20;3.05;;;19.60;58.50;;;;;;5091040;28;20194;-58
2023/04/13 01:33:07;;;;;;;6.43;3.42;;;19.60;58.50;;;;;;5090885;28;20214;-59
2023/04/13 01:35:39;;;;;;;4.80;2.90;;;19.60;58.50;;;;;;5093582;28;20214;-59
2023/04/13 01:38:11;;;;;;;5.35;3.10;;;19.60;58.50;;;;;;5093688;28;20677;-58
2023/04/13 01:40:43;;;;;;;4.82;3.25;;;19.60;58.50;;;;;;5094729;28;20198;-59
2023/04/13 01:43:16;;;;;;;3.95;2.95;;;19.60;58.50;;;;;;5094432;28;20218;-58
2023/04/13 01:45:49;;;;;;;4.82;3.30;;;19.60;58.50;;;;;;5087011;28;20194;-58
2023/04/13 01:48:26;;;;;;;4.43;2.97;;;19.60;58.50;;;;;;5073641;28;20252;-59
2023/04/13 01:50:59;;;;;;;3.60;2.90;;;19.60;58.40;;;;;;5074004;28;20249;-58
2023/04/13 01:53:34;;;;;;;4.10;3.03;;;19.60;58.50;;;;;;5073739;28;20901;-58
2023/04/13 01:56:06;;;;;;;4.40;2.95;;;19.60;58.50;;;;;;5073425;28;20226;-58
2023/04/13 01:58:39;;;;;;;5.72;3.17;;;19.60;58.50;;;;;;5073077;28;20260;-58
2023/04/13 02:01:11;;;;;;;4.18;2.80;;;19.60;58.60;;;;;;5072828;28;20198;-59
2023/04/13 02:03:42;;;;;;;3.80;2.70;;;19.60;58.60;;;;;;5072922;28;20287;-58
2023/04/13 02:06:13;;;;;;;4.18;2.97;;;19.60;58.60;;;;;;5073701;28;20670;-58
2023/04/13 02:08:44;;;;;;;5.20;2.80;;;19.60;58.70;;;;;;5073706;28;20662;-58
2023/04/13 02:11:15;;;;;;;4.38;3.10;;;19.60;58.60;;;;;;5081981;28;20195;-58
2023/04/13 02:13:47;;;;;;;4.35;2.95;;;19.60;58.60;;;;;;5092922;28;20214;-58
2023/04/13 02:16:18;;;;;;;5.32;3.00;;;19.60;58.60;;;;;;5092523;28;20693;-58
2023/04/13 02:18:48;;;;;;;3.83;2.80;;;19.70;58.70;;;;;;5092713;28;20658;-58
2023/04/13 02:21:19;;;;;;;4.32;2.90;;;19.70;58.60;;;;;;5093879;28;20194;-58
2023/04/13 02:23:51;;;;;;;4.05;2.83;;;19.70;58.60;;;;;;5093567;28;20216;-58
2023/04/13 02:26:22;;;;;;;4.63;2.80;;;19.70;58.70;;;;;;5089089;28;20272;-58
2023/04/13 02:28:55;;;;;;;4.15;2.88;;;19.70;58.70;;;;;;5073488;28;20190;-58
2023/04/13 02:31:26;;;;;;;3.92;2.50;;;19.70;58.70;;;;;;5073297;28;20230;-58
2023/04/13 02:33:57;;;;;;;4.70;2.38;;;19.70;58.80;;;;;;5073194;28;20223;-58
2023/04/13 02:36:27;;;;;;;4.03;2.60;;;19.70;58.80;;;;;;5072576;28;20222;-59
2023/04/13 02:38:59;;;;;;;4.40;2.97;;;19.70;58.90;;;;;;5082104;28;20531;-58
2023/04/13 02:41:30;;;;;;;4.05;2.63;;;19.70;58.90;;;;;;5093725;28;20204;-58
2023/04/13 02:44:02;;;;;;;2.75;2.40;;;19.70;58.90;;;;;;5092499;28;20221;-59
2023/04/13 02:46:33;;;;;;;3.15;2.47;;;19.70;58.90;;;;;;5080603;28;20217;-59
2023/04/13 02:49:03;;;;;;;4.20;2.75;;;19.70;58.90;;;;;;5072469;28;20199;-58
2023/04/13 02:51:34;;;;;;;4.07;2.42;;;19.70;58.80;;;;;;5072984;28;20202;-59
2023/04/13 02:54:05;;;;;;;3.35;2.60;;;19.70;58.80;;;;;;5072783;28;20269;-58
2023/04/13 02:56:36;;;;;;;3.42;2.30;;;19.80;58.80;;;;;;5072936;28;20230;-59
2023/04/13 02:59:09;;;;;;;3.85;2.58;;;19.80;58.80;;;;;;5072778;28;20198;-58
2023/04/13 03:01:40;;;;;;;3.25;2.20;;;19.80;58.80;;;;;;5072140;28;20238;-58
2023/04/13 03:04:11;;;;;;;2.92;2.00;;;19.80;58.80;;;;;;5072046;28;20219;-59
2023/04/13 03:06:43;;;;;;;2.53;2.10;;;19.80;58.80;;;;;;5072012;28;20614;-58
2023/04/13 03:09:14;;;;;;;3.42;2.25;;;19.80;58.80;;;;;;5072561;28;20199;-58
2023/04/13 03:11:45;;;;;;;4.32;2.50;;;19.80;58.90;;;;;;5072315;28;20202;-58
2023/04/13 03:14:21;;;;;;;3.42;2.50;;;19.80;58.90;;;;;;5072259;28;20618;-59
2023/04/13 03:16:53;;;;;;;2.85;2.30;;;19.80;58.90;;;;;;5087607;28;20225;-59
2023/04/13 03:19:23;;;;;;;2.67;2.42;;;19.80;58.90;;;;;;5091824;28;20202;-58
2023/04/13 03:21:54;;;;;;;2.75;2.22;;;19.80;58.90;;;;;;5092284;28;20208;-58
2023/04/13 03:24:26;;;;;;;4.30;2.63;;;19.80;58.90;;;;;;5092740;28;20255;-59
2023/04/13 03:26:57;;;;;;;3.22;2.30;;;19.90;58.90;;;;;;5091953;28;20232;-58
2023/04/13 03:29:30;;;;;;;2.53;2.08;;;19.80;58.90;;;;;;5092005;28;20195;-58
2023/04/13 03:32:01;;;;;;;4.97;2.97;;;19.90;58.90;;;;;;5091867;28;20198;-58
2023/04/13 03:34:31;;;;;;;4.07;2.63;;;19.90;58.90;;;;;;5092059;28;20689;-58
2023/04/13 03:37:02;;;;;;;4.43;2.58;;;19.90;58.90;;;;;;5092068;28;20698;-59
2023/04/13 03:39:32;;;;;;;6.05;3.13;;;19.90;58.90;;;;;;5092572;28;20206;-58
2023/04/13 03:42:03;;;;;;;3.80;2.67;;;19.90;58.90;;;;;;5091703;28;20197;-59
2023/04/13 03:44:36;;;;;;;4.13;2.72;;;19.90;58.90;;;;;;5091694;28;20202;-59
2023/04/13 03:47:08;;;;;;;3.97;2.80;;;19.90;58.90;;;;;;5073475;28;20693;-59
2023/04/13 03:49:39;;;;;;;5.10;2.80;;;19.90;58.80;;;;;;5071574;28;20281;-59
2023/04/13 03:52:09;;;;;;;4.97;2.92;;;19.90;58.80;;;;;;5071706;28;20198;-59
2023/04/13 03:54:40;;;;;;;4.50;2.80;;;19.90;58.80;;;;;;5071580;28;20191;-59
2023/04/13 03:57:11;;;;;;;4.93;3.03;;;19.90;58.80;;;;;;5071418;28;20770;-58
2023/04/13 03:59:44;;;;;;;5.38;3.17;;;19.90;58.80;;;;;;5071542;28;20190;-58
2023/04/13 04:02:14;;;;;;;3.70;2.67;;;19.90;58.80;;;;;;5071145;28;20198;-58
2023/04/13 04:04:45;;;;;;;4.80;2.88;;;19.90;58.80;;;;;;5081338;28;20193;-58
2023/04/13 04:07:16;;;;;;;4.82;2.55;;;19.90;58.80;;;;;;5091604;28;20574;-59
2023/04/13 04:09:46;;;;;;;3.40;2.67;;;19.90;58.80;;;;;;5091379;28;20198;-58
2023/04/13 04:12:17;;;;;;;5.18;2.85;;;19.90;58.80;;;;;;5091155;28;20202;-58
2023/04/13 04:14:49;;;;;;;4.97;3.00;;;19.90;58.70;;;;;;5091026;28;20203;-58
2023/04/13 04:17:20;;;;;;;4.07;3.10;;;19.90;58.70;;;;;;5089222;28;20613;-58
2023/04/13 04:19:50;;;;;;;4.78;3.03;;;19.90;58.70;;;;;;5071362;28;20256;-58
2023/04/13 04:22:21;;;;;;;6.55;3.10;;;19.90;58.70;;;;;;5071288;28;20229;-58
2023/04/13 04:24:52;;;;;;;4.97;3.10;;;19.90;58.70;;;;;;5079899;28;20201;-58
2023/04/13 04:27:25;;;;;;;4.78;3.08;;;19.90;58.70;;;;;;5091144;28;20194;-58
2023/04/13 04:29:59;;;;;;;4.93;3.15;;;19.90;58.70;;;;;;5091234;28;20685;-58
2023/04/13 04:32:32;;;;;;;4.93;3.20;;;19.90;58.60;;;;;;5091339;28;20241;-58
2023/04/13 04:35:03;;;;;;;5.95;3.38;;;19.90;58.60;;;;;;5091190;28;20251;-58
2023/04/13 04:37:36;;;;;;;4.32;2.88;;;19.90;58.60;;;;;;5090769;28;20295;-58
2023/04/13 04:40:09;;;;;;;5.00;3.15;;;19.90;58.60;;;;;;5090992;28;20198;-58
2023/04/13 04:42:40;;;;;;;5.15;3.55;;;19.90;58.70;;;;;;5088174;28;20246;-58
2023/04/13 04:45:13;;;;;;;5.38;3.58;;;19.90;58.60;;;;;;5071209;28;20293;-58
2023/04/13 04:47:44;;;;;;;4.47;3.30;;;19.90;58.60;;;;;;5070593;28;20217;-58
2023/04/13 04:50:16;;;;;;;5.65;3.28;;;19.90;58.60;;;;;;5070604;28;20201;-58
2023/04/13 04:52:47;;;;;;;4.85;2.70;;;19.90;58.60;;;;;;5070431;28;20225;-58
2023/04/13 04:55:17;;;;;;;4.95;3.08;;;20.00;58.70;;;;;;5070244;28;20195;-58
2023/04/13 04:57:48;;;;;;;4.13;3.05;;;19.90;58.50;;;;;;5070506;28;20266;-58
2023/04/13 05:00:21;;;;;;;5.57;3.05;;;19.90;58.50;;;;;;5070750;28;20256;-58
2023/04/13 05:02:53;;;;;;;5.07;3.30;;;19.90;58.50;;;;;;5070478;28;20243;-58
2023/04/13 05:05:24;;;;;;;5.50;3.20;;;19.90;58.50;;;;;;5070707;28;20195;-58
2023/04/13 05:07:54;;;;;;;5.10;3.55;;;19.90;58.50;;;;;;5070478;28;20207;-58
2023/04/13 05:10:27;;;;;;;5.75;3.30;;;19.90;58.50;;;;;;5074235;28;20198;-58
2023/04/13 05:12:57;;;;;;;4.82;3.70;;;19.90;58.40;;;;;;5074037;28;20608;-58
2023/04/13 05:15:30;;;;;;;4.40;3.25;;;19.90;58.50;;;;;;5074040;28;20198;-59
2023/04/13 05:18:03;;;;;;;5.45;3.20;;;19.90;58.50;;;;;;5073828;28;20226;-58
2023/04/13 05:20:34;;;;;;;6.32;3.63;;;19.90;58.50;;;;;;5074327;28;20234;-58
2023/04/13 05:23:04;;;;;;;4.82;3.17;;;19.90;58.50;;;;;;5076205;28;20650;-58
2023/04/13 05:25:35;;;;;;;5.03;3.42;;;19.90;58.50;;;;;;5074715;28;20221;-58
2023/04/13 05:28:05;;;;;;;4.95;3.58;;;19.90;58.50;;;;;;5074174;28;20203;-58
2023/04/13 05:30:39;;;;;;;4.90;3.45;;;19.90;58.50;;;;;;5073589;28;20256;-58
2023/04/13 05:33:10;;;;;;;5.88;3.85;;;19.90;58.40;;;;;;5073948;28;20218;-58
2023/04/13 05:35:41;;;;;;;5.07;3.50;;;19.90;58.40;;;;;;5074536;28;20194;-58
2023/04/13 05:38:11;;;;;;;6.40;3.80;;;19.90;58.40;;;;;;5074013;28;20305;-58
2023/04/13 05:40:42;;;;;;;6.18;4.18;;;19.90;58.40;;;;;;5074019;28;20199;-58
2023/04/13 05:43:12;;;;;;;5.20;3.60;;;19.90;58.40;;;;;;5073837;28;20226;-58
2023/04/13 05:45:45;;;;;;;5.85;3.92;;;19.90;58.40;;;;;;5073783;28;20983;-58
2023/04/13 05:48:16;;;;;;;5.72;3.78;;;19.90;58.40;;;;;;5073497;28;20199;-58
2023/04/13 05:50:46;;;;;;;5.43;3.72;;;19.90;59.00;;;;;;5074102;28;20190;-58
2023/04/13 05:53:17;;;;;;;5.40;3.22;;;19.90;58.40;;;;;;5073550;28;20246;-58
2023/04/13 05:55:48;;;;;;;5.13;3.40;;;19.90;58.40;;;;;;5081879;28;20541;-58
2023/04/13 05:58:19;;;;;;;5.18;3.58;;;19.90;58.40;;;;;;5093872;28;20240;-58
2023/04/13 06:00:52;;;;;;;5.13;3.40;;;19.90;58.40;;;;;;5094170;28;20721;-58
2023/04/13 06:03:24;;;;;;;4.60;3.22;;;19.90;58.40;;;;;;5093381;28;20736;-58
2023/04/13 06:05:54;;;;;;;5.75;3.67;;;19.90;58.30;;;;;;5093536;28;20191;-58
2023/04/13 06:08:31;;;;;;;5.45;3.45;;;19.90;58.30;;;;;;5093520;28;20620;-58
2023/04/13 06:11:02;;;;;;;6.22;3.35;;;19.90;58.30;;;;;;5093489;28;20209;-58
2023/04/13 06:13:33;;;;;;;6.00;3.90;;;19.90;58.30;;;;;;5092735;28;20213;-57
2023/04/13 06:16:06;;;;;;;7.22;4.43;;;19.90;58.30;;;;;;5093197;28;20547;-58
2023/04/13 06:18:36;;;;;;;5.28;3.97;;;19.90;58.30;;;;;;5092704;28;20218;-58
2023/04/13 06:21:07;;;;;;;5.35;4.00;;;19.90;58.30;;;;;;5091701;28;20198;-58
2023/04/13 06:23:38;;;;;;;5.55;3.70;;;19.90;58.40;;;;;;5089840;28;20210;-58
2023/04/13 06:26:09;;;;;;;5.45;4.10;;;19.90;58.40;;;;;;5094272;28;20193;-58
2023/04/13 06:28:41;;;;;;;5.07;3.90;;;19.90;58.40;;;;;;5093705;28;20204;-58
2023/04/13 06:31:14;;;;;;;5.95;3.97;;;19.80;58.40;;;;;;5093496;28;20190;-58
2023/04/13 06:33:44;;;;;;;4.50;3.50;;;19.90;58.40;;;;;;5092693;28;20210;-58
2023/04/13 06:36:15;;;;;;;6.25;4.30;;;19.80;58.30;;;;;;5093171;28;20198;-58
2023/04/13 06:38:46;;;;;;;7.45;4.65;;;19.80;58.30;;;;;;5092804;28;20198;-58
2023/04/13 06:41:16;;;;;;;6.13;3.97;;;19.80;58.30;;;;;;5092416;28;20226;-58
2023/04/13 06:43:47;;;;;;;5.68;4.00;;;19.80;58.30;;;;;;5093087;28;20222;-57
2023/04/13 06:46:20;;;;;;;6.60;4.20;;;19.80;58.30;;;;;;5087557;28;20198;-58
2023/04/13 06:48:54;;;;;;;4.95;3.70;;;19.80;58.30;;;;;;5092848;28;20194;-57
2023/04/13 06:51:24;;;;;;;6.53;4.20;;;19.80;58.30;;;;;;5093430;28;20554;-58
2023/04/13 06:53:55;;;;;;;5.88;3.95;;;19.80;58.30;;;;;;5092708;28;20716;-58
2023/04/13 06:56:25;;;;;;;5.50;3.95;;;19.80;58.30;;;;;;5092996;28;20198;-58
2023/04/13 06:58:59;;;;;;;6.13;4.60;;;19.80;58.30;;;;;;5092728;28;20205;-58
2023/04/13 07:01:32;;;;;;;6.53;4.85;;;19.80;58.30;;;;;;5092074;28;20202;-58
2023/04/13 07:04:05;;;;;;;6.30;4.28;;;19.80;58.40;;;;;;5091989;28;20218;-58
2023/04/13 07:06:36;;;;;;;6.45;4.82;;;19.80;58.30;;;;;;5092468;28;20198;-58
2023/04/13 07:09:07;;;;;;;6.18;4.35;;;19.80;58.30;;;;;;5092567;28;20217;-58
2023/04/13 07:11:37;;;;;;;4.72;4.00;;;19.80;58.40;;;;;;5092534;28;20190;-58
2023/04/13 07:14:08;;;;;;;5.63;4.38;;;19.80;58.30;;;;;;5092439;28;20639;-57
2023/04/13 07:16:40;;;;;;;6.10;4.80;;;19.80;58.30;;;;;;5092689;28;20221;-58
2023/04/13 07:19:11;;;;;;;5.80;4.10;;;19.80;58.30;;;;;;5092499;28;20213;-58
2023/04/13 07:21:42;;;;;;;5.82;4.20;;;19.80;58.20;;;;;;5091936;28;20197;-58
2023/04/13 07:24:16;;;;;;;6.45;4.47;;;19.80;58.30;;;;;;5084679;28;20206;-58
2023/04/13 07:26:46;;;;;;;5.35;4.28;;;19.80;58.90;;;;;;5083058;28;20558;-58
2023/04/13 07:29:19;;;;;;;5.50;4.30;;;19.80;58.30;;;;;;5082279;28;20194;-58
2023/04/13 07:31:51;;;;;;;5.60;4.22;;;19.80;58.30;;;;;;5079621;28;20551;-58
2023/04/13 07:34:22;;;;;;;7.10;4.70;;;19.80;58.30;;;;;;5079926;28;20213;-58
2023/04/13 07:36:52;;;;;;;5.97;4.45;;;19.80;58.40;;;;;;5080623;28;20187;-58
2023/04/13 07:39:23;;;;;;;6.68;4.65;;;19.80;58.30;;;;;;5080267;28;20218;-58
2023/04/13 07:41:54;;;;;;;5.40;4.18;;;19.80;58.40;;;;;;5081596;28;20243;-57
2023/04/13 07:44:24;;;;;;;5.53;4.30;;;19.80;58.40;;;;;;5082271;28;20236;-57
2023/04/13 07:46:57;;;;;;;5.72;4.45;;;19.80;58.40;;;;;;5089467;28;20194;-57
2023/04/13 07:49:27;;;;;;;5.85;4.47;;;19.70;58.30;;;;;;5091119;28;20659;-57
2023/04/13 07:51:59;;;;;;;6.30;4.50;;;19.70;58.30;;;;;;5091110;28;20595;-57
2023/04/13 07:54:30;;;;;;;5.15;3.80;;;19.70;58.30;;;;;;5086223;28;20265;-58
2023/04/13 07:57:01;;;;;;;7.40;4.82;;;19.70;58.30;;;;;;5082556;28;20209;-57
2023/04/13 07:59:31;;;;;;;5.70;4.40;;;19.70;58.30;;;;;;5081249;28;20665;-58
2023/04/13 08:02:04;;;;;;;4.78;3.95;;;19.70;58.30;;;;;;5079485;28;20245;-58
2023/04/13 08:04:35;;;;;;;6.53;4.53;;;19.70;58.30;;;;;;5080636;28;20190;-57
2023/04/13 08:07:06;;;;;;;6.55;4.72;;;19.70;58.30;;;;;;5086426;28;20276;-58
2023/04/13 08:09:40;;;;;;;6.13;4.57;;;19.70;58.30;;;;;;5090153;28;20201;-58
2023/04/13 08:12:11;;;;;;;6.38;5.10;;;19.70;58.30;;;;;;5081888;28;20190;-58
2023/04/13 08:14:41;;;;;;;5.18;4.10;;;19.70;58.90;;;;;;5080635;28;20195;-58
2023/04/13 08:17:14;;;;;;;6.50;4.50;;;19.70;58.30;;;;;;5078332;28;20214;-58
2023/04/13 08:19:44;;;;;;;6.25;4.20;;;19.70;58.40;;;;;;5080194;28;20657;-58
2023/04/13 08:22:15;;;;;;;6.20;4.30;;;19.70;58.30;;;;;;5079877;28;20186;-58
2023/04/13 08:24:46;;;;;;;4.88;3.70;;;19.70;58.40;;;;;;5081811;28;20190;-58
2023/04/13 08:27:18;;;;;;;5.70;4.32;;;19.70;58.30;;;;;;5079820;28;20222;-58
2023/04/13 08:29:49;;;;;;;5.07;4.15;;;19.70;58.40;;;;;;5079524;28;20229;-58
2023/04/13 08:32:21;;;;;;;5.50;4.15;;;19.70;58.40;;;;;;5085975;28;20210;-58
2023/04/13 08:34:52;;;;;;;5.53;4.50;;;19.70;58.40;;;;;;5091234;28;20201;-58
2023/04/13 08:37:23;;;;;;;4.95;4.10;;;19.60;58.30;;;;;;5091099;28;20308;-58
2023/04/13 08:39:58;;;;;;;5.85;4.30;;;19.60;58.30;;;;;;5077052;28;20264;-58
2023/04/13 08:42:29;;;;;;;6.20;4.38;;;19.70;58.30;;;;;;5071055;28;20214;-58
2023/04/13 08:45:01;;;;;;;4.70;4.03;;;19.60;58.30;;;;;;5074424;28;20214;-58
2023/04/13 08:47:34;;;;;;;5.30;4.00;;;19.60;58.30;;;;;;5094925;28;20202;-57
2023/04/13 08:50:04;;;;;;;5.85;4.43;;;19.60;58.30;;;;;;5094817;28;20194;-55
2023/04/13 08:52:37;;;;;;;7.50;5.43;;;19.60;58.20;;;;;;5075123;28;20218;-57
2023/04/13 08:55:09;;;;;;;8.13;6.45;;;19.60;58.70;;;;;;5075193;28;20735;-57
2023/04/13 08:57:40;;;;;;;7.30;5.45;;;19.60;59.30;;;;;;5083633;28;20342;-58
2023/04/13 09:00:16;;;;;;;6.95;5.25;;;19.70;59.30;;;;;;5081368;28;20239;-58
2023/04/13 09:02:53;;;;;;;6.78;4.93;;;19.70;59.20;;;;;;5084770;28;20207;-58
2023/04/13 09:05:25;;;;;;;5.85;4.47;;;19.70;59.00;;;;;;5076147;28;20651;-57
2023/04/13 09:08:00;;;;;;;6.50;4.85;;;19.70;59.50;;;;;;5093724;28;20204;-58
2023/04/13 09:10:31;;;;;;;5.60;4.57;;;19.70;58.80;;;;;;5096754;28;20251;-58
2023/04/13 09:13:01;;;;;;;5.93;4.47;;;19.60;59.40;;;;;;5106046;28;20230;-58
2023/04/13 09:15:35;;;;;;;6.60;4.55;;;19.60;58.70;;;;;;5081014;28;20277;-58
2023/04/13 09:18:14;;;;;;;6.20;5.18;;;19.70;58.70;;;;;;5094131;28;20218;-58
2023/04/13 09:20:55;;;;;;;6.18;4.57;;;19.60;58.60;;;;;;5094299;28;20190;-58
2023/04/13 09:23:26;;;;;;;7.45;4.93;;;19.60;58.70;;;;;;5094196;28;20221;-58
2023/04/13 09:26:07;;;;;;;6.10;4.80;;;19.60;58.70;;;;;;5095067;28;20612;-58
2023/04/13 09:28:48;;;;;;;6.07;5.05;;;19.60;58.70;;;;;;5094551;28;20202;-58
2023/04/13 09:31:19;;;;;;;7.78;5.00;;;19.60;58.60;;;;;;5093629;28;20198;-58
2023/04/13 09:33:53;;;;;;;6.65;4.80;;;19.60;58.60;;;;;;5093526;28;20256;-58
2023/04/13 09:36:24;;;;;;;7.13;5.10;;;19.60;58.60;;;;;;5101986;28;20193;-58
2023/04/13 09:38:56;;;;;;;5.55;4.57;;;19.60;58.60;;;;;;5113895;28;20267;-58
2023/04/13 09:41:37;;;;;;;6.40;4.75;;;19.60;58.60;;;;;;5090720;28;20198;-58
2023/04/13 09:44:19;;;;;;;5.80;4.53;;;19.60;58.70;;;;;;5093369;28;20304;-57
2023/04/13 09:47:00;;;;;;;7.10;5.10;;;19.60;58.70;;;;;;5092909;28;20201;-58
2023/04/13 09:49:39;;;;;;;6.95;5.00;;;19.60;58.70;;;;;;5092596;28;20194;-58
2023/04/13 09:52:20;;;;;;;6.75;5.05;;;19.60;58.70;;;;;;5101115;28;20189;-58
2023/04/13 09:54:53;;;;;;;6.65;5.13;;;19.60;58.60;;;;;;5113243;28;20193;-58
2023/04/13 09:57:27;;;;;;;6.03;4.85;;;19.60;58.70;;;;;;5113451;28;20190;-57
2023/04/13 09:59:59;;;;;;;6.45;4.40;;;19.60;58.70;;;;;;5112830;28;20193;-56
2023/04/13 10:02:30;;;;;;;6.60;4.80;;;19.60;58.60;;;;;;5112963;28;20281;-57
2023/04/13 10:05:03;;;;;;;6.20;5.00;;;19.60;58.60;;;;;;5100753;28;20865;-58
2023/04/13 10:07:35;;;;;;;6.20;4.47;;;19.60;58.60;;;;;;5113805;28;20194;-58
2023/04/13 10:10:07;;;;;;;6.18;4.82;;;19.60;58.60;;;;;;5113354;28;20220;-58
2023/04/13 10:12:44;;;;;;;6.07;4.15;;;19.60;58.70;;;;;;5085740;28;20324;-58
2023/04/13 10:15:32;;;;;;;6.68;5.18;;;19.60;58.60;;;;;;5077541;28;20693;-58
2023/04/13 10:18:15;;;;;;;5.78;4.68;;;19.60;58.60;;;;;;5093090;28;20228;-58
2023/04/13 10:20:48;;;;;;;6.10;4.63;;;19.60;58.60;;;;;;5089307;28;20191;-58
2023/04/13 10:23:19;;;;;;;6.18;4.75;;;19.60;58.60;;;;;;5072404;28;20703;-58
2023/04/13 10:25:56;;;;;;;6.07;4.32;;;19.60;58.60;;;;;;5082136;28;20202;-57
2023/04/13 10:28:27;;;;;;;6.50;4.57;;;19.60;58.60;;;;;;5092658;28;20696;-58
2023/04/13 10:30:57;;;;;;;6.20;4.30;;;19.60;58.60;;;;;;5092554;28;20200;-58
2023/04/13 10:33:30;;;;;;;6.53;4.53;;;19.60;58.70;;;;;;5092874;28;20218;-58
2023/04/13 10:36:03;;;;;;;6.90;4.75;;;19.60;58.70;;;;;;5083253;28;20206;-58
2023/04/13 10:38:44;;;;;;;5.85;4.13;;;19.60;58.70;;;;;;5093013;28;20589;-57
2023/04/13 10:41:25;;;;;;;5.50;4.30;;;19.60;58.70;;;;;;5092876;28;20276;-58
2023/04/13 10:44:03;;;;;;;5.80;4.60;;;19.50;58.60;;;;;;5092439;28;20312;-58
2023/04/13 10:46:34;;;;;;;6.28;4.57;;;19.60;58.60;;;;;;5091931;28;20194;-58
2023/04/13 10:49:06;;;;;;;6.60;4.70;;;19.60;58.60;;;;;;5092326;28;20289;-58
2023/04/13 10:51:46;;;;;;;5.22;4.35;;;19.60;58.50;;;;;;5093375;28;20190;-58
2023/04/13 10:54:17;;;;;;;5.38;4.10;;;19.60;58.60;;;;;;5076129;28;20227;-58
2023/04/13 10:56:57;;;;;;;5.53;4.30;;;19.60;58.60;;;;;;5083426;28;20195;-58
2023/04/13 10:59:40;;;;;;;5.78;4.25;;;19.60;58.50;;;;;;5091467;28;20261;-58
2023/04/13 11:02:14;;;;;;;5.47;3.75;;;19.50;58.50;;;;;;5091449;28;20201;-58
2023/04/13 11:04:46;;;;;;;6.40;4.55;;;19.60;58.60;;;;;;5091903;28;20217;-58
2023/04/13 11:07:20;;;;;;;5.95;4.18;;;19.50;58.50;;;;;;5109695;28;20197;-58
2023/04/13 11:09:51;;;;;;;5.72;4.28;;;19.50;58.50;;;;;;5112690;28;20204;-58
2023/04/13 11:12:22;;;;;;;6.30;4.32;;;19.50;58.60;;;;;;5112203;28;20651;-58
2023/04/13 11:14:53;;;;;;;4.38;3.80;;;19.50;58.60;;;;;;5112891;28;20205;-58
2023/04/13 11:17:24;;;;;;;5.07;4.00;;;19.50;58.60;;;;;;5090416;28;20604;-57
2023/04/13 11:19:56;;;;;;;5.43;3.97;;;19.50;58.60;;;;;;5090823;28;20217;-58
2023/04/13 11:22:36;;;;;;;6.88;4.80;;;19.50;58.60;;;;;;5091408;28;20681;-58
2023/04/13 11:25:10;;;;;;;4.63;4.00;;;19.50;58.60;;;;;;5092309;28;20194;-58
2023/04/13 11:27:41;;;;;;;5.15;3.78;;;19.50;58.50;;;;;;5070544;28;20800;-58
2023/04/13 11:30:12;;;;;;;4.10;3.65;;;19.50;58.50;;;;;;5071581;28;20199;-58
2023/04/13 11:32:43;;;;;;;4.85;3.78;;;19.50;58.60;;;;;;5070384;28;20254;-58
2023/04/13 11:35:16;;;;;;;5.65;4.38;;;19.50;58.50;;;;;;5070763;28;20234;-58
2023/04/13 11:37:51;;;;;;;5.43;4.43;;;19.50;58.50;;;;;;5070516;28;20210;-58
2023/04/13 11:40:24;;;;;;;4.70;3.55;;;19.50;58.50;;;;;;5071755;28;20218;-58
2023/04/13 11:42:55;;;;;;;4.85;3.70;;;19.50;58.50;;;;;;5091685;28;20221;-58
2023/04/13 11:45:27;;;;;;;6.65;4.05;;;19.50;58.60;;;;;;5088838;28;20213;-58
2023/04/13 11:47:59;;;;;;;4.97;3.88;;;19.40;58.50;;;;;;5091115;28;20631;-58
2023/04/13 11:50:30;;;;;;;5.35;4.10;;;19.40;58.60;;;;;;5084620;28;20191;-58
2023/04/13 11:53:02;;;;;;;4.97;3.90;;;19.40;58.60;;;;;;5111079;28;20217;-58
2023/04/13 11:55:33;;;;;;;5.18;3.83;;;19.40;58.60;;;;;;5110815;27;20680;-58
2023/04/13 11:58:09;;;;;;;6.90;4.18;;;19.40;58.60;;;;;;5111379;28;20197;-58
2023/04/13 12:00:40;;;;;;;5.78;4.07;;;19.40;58.60;;;;;;5100796;28;20225;-58
2023/04/13 12:03:16;;;;;;;5.22;3.90;;;19.40;58.60;;;;;;5110892;28;20220;-58
2023/04/13 12:05:47;;;;;;;5.30;3.97;;;19.40;58.60;;;;;;5110078;28;20184;-58
2023/04/13 12:08:27;;;;;;;4.50;3.58;;;19.40;58.50;;;;;;5111348;28;20238;-58
2023/04/13 12:11:02;;;;;;;4.43;3.60;;;19.40;58.50;;;;;;5111273;28;20255;-58
2023/04/13 12:13:43;;;;;;;4.63;3.92;;;19.40;58.50;;;;;;5110921;28;20227;-58
2023/04/13 12:16:25;;;;;;;4.38;3.63;;;19.40;58.60;;;;;;5097559;28;20201;-58
2023/04/13 12:18:56;;;;;;;5.43;4.03;;;19.40;58.50;;;;;;5090237;28;20224;-58
2023/04/13 12:21:27;;;;;;;5.40;4.10;;;19.40;58.50;;;;;;5091435;28;20189;-58
2023/04/13 12:24:00;;;;;;;5.60;4.30;;;19.40;58.50;;;;;;5079946;28;20214;-58
2023/04/13 12:26:35;;;;;;;5.95;4.28;;;19.40;58.60;;;;;;5079185;28;20193;-58
2023/04/13 12:29:06;;;;;;;6.03;4.03;;;19.40;58.60;;;;;;5078840;28;20197;-58
2023/04/13 12:31:38;;;;;;;4.93;3.72;;;19.40;58.60;;;;;;5078747;28;20277;-58
2023/04/13 12:34:09;;;;;;;5.97;4.00;;;19.40;58.60;;;;;;5080457;28;20214;-58
2023/04/13 12:36:40;;;;;;;6.13;4.35;;;19.40;58.60;;;;;;5080337;28;20191;-58
2023/04/13 12:39:12;;;;;;;5.55;3.75;;;19.40;58.60;;;;;;5079023;28;20214;-58
2023/04/13 12:41:43;;;;;;;5.15;3.72;;;19.40;58.60;;;;;;5079989;28;20190;-58
2023/04/13 12:44:13;;;;;;;4.35;3.65;;;19.40;58.60;;;;;;5080723;28;20214;-58
2023/04/13 12:46:44;;;;;;;5.78;3.90;;;19.40;58.60;;;;;;5077226;28;20205;-58
2023/04/13 12:49:14;;;;;;;4.53;3.78;;;19.40;58.60;;;;;;5070686;28;20252;-58
2023/04/13 12:51:45;;;;;;;7.03;3.88;;;19.40;58.60;;;;;;5070733;28;20194;-58
2023/04/13 12:54:18;;;;;;;4.95;3.88;;;19.40;58.60;;;;;;5070540;28;20226;-58
2023/04/13 12:56:48;;;;;;;5.80;3.63;;;19.40;58.60;;;;;;5075243;28;20574;-58
2023/04/13 12:59:20;;;;;;;6.07;3.97;;;19.40;58.60;;;;;;5090906;28;20233;-58
2023/04/13 13:01:51;;;;;;;5.85;3.72;;;19.40;58.60;;;;;;5091160;28;20277;-58
2023/04/13 13:04:21;;;;;;;6.40;4.40;;;19.40;58.60;;;;;;5090820;28;20221;-58
2023/04/13 13:06:52;;;;;;;5.22;3.75;;;19.40;58.60;;;;;;5091248;28;20198;-58
2023/04/13 13:09:24;;;;;;;5.88;3.63;;;19.40;58.60;;;;;;5091187;28;20585;-58
2023/04/13 13:11:55;;;;;;;6.07;4.43;;;19.30;58.60;;;;;;5090834;28;20199;-58
2023/04/13 13:14:26;;;;;;;5.25;4.00;;;19.30;58.60;;;;;;5090930;28;20199;-57